Time;durP1;ratioP1;P1;durP2;ratioP2;P2;SDS_P1;SDS_P2;PMS_P1;PMS_P2;Temp;Humidity;BMP_temperature;BMP_pressure;BME280_temperature;BME280_humidity;BME280_pressure;Samples;Min_cycle;Max_cycle;Signal;HPM_P1;HPM_P2
2021/12/11 00:09:02;;;;;;;44.6;61.9;;;;;;;-0.1;83.2;97630;;;;
2021/12/11 00:19:02;;;;;;;44.6;61.9;;;;;;;-0.2;83.9;97630;;;;
2021/12/11 00:30:02;;;;;;;44.6;61.9;;;;;;;-0.6;85;97650;;;;
2021/12/11 00:41:02;;;;;;;41.9;54.6;;;;;;;-0.4;85.1;97680;;;;
2021/12/11 00:52:02;;;;;;;41.9;54.6;;;;;;;0;84.3;97700;;;;
2021/12/11 01:03:02;;;;;;;41.9;54.6;;;;;;;0;83.7;97740;;;;
2021/12/11 01:13:04;;;;;;;37.1;56.8;;;;;;;0;83.3;97740;;;;
2021/12/11 01:24:13;;;;;;;37.1;56.8;;;;;;;0.3;83.3;97750;;;;
2021/12/11 01:35:02;;;;;;;37.1;56.8;;;;;;;0.1;82.4;97750;;;;
2021/12/11 01:46:02;;;;;;;36.2;47.8;;;;;;;0.4;82.2;97780;;;;
2021/12/11 01:57:02;;;;;;;36.2;47.8;;;;;;;0.5;82;97780;;;;
2021/12/11 02:07:02;;;;;;;40.7;57.6;;;;;;;0.3;81.8;97780;;;;
2021/12/11 02:18:02;;;;;;;40.7;57.6;;;;;;;0.4;81.7;97790;;;;
2021/12/11 02:29:02;;;;;;;40.7;57.6;;;;;;;0.3;82;97810;;;;
2021/12/11 02:39:02;;;;;;;38.9;54.4;;;;;;;0.2;82.2;97830;;;;
2021/12/11 02:50:02;;;;;;;38.9;54.4;;;;;;;0.4;81.6;97840;;;;
2021/12/11 03:01:02;;;;;;;38.9;54.4;;;;;;;0.5;81.8;97850;;;;
2021/12/11 03:12:02;;;;;;;40.6;59.3;;;;;;;0.6;81.7;97850;;;;
2021/12/11 03:23:02;;;;;;;40.6;59.3;;;;;;;0.5;81.7;97860;;;;
2021/12/11 03:34:02;;;;;;;40.6;59.3;;;;;;;0.5;82;97860;;;;
2021/12/11 03:44:02;;;;;;;47.3;70.4;;;;;;;0.6;81.8;97870;;;;
2021/12/11 03:54:02;;;;;;;47.3;70.4;;;;;;;0.7;82;97870;;;;
2021/12/11 04:04:02;;;;;;;47.3;70.4;;;;;;;0.6;82.2;97880;;;;
2021/12/11 04:15:02;;;;;;;49.2;68.4;;;;;;;0.6;81.9;97890;;;;
2021/12/11 04:26:02;;;;;;;49.2;68.4;;;;;;;0.6;82.4;97900;;;;
2021/12/11 04:36:02;;;;;;;45;65.2;;;;;;;0.6;82.2;97930;;;;
2021/12/11 04:46:04;;;;;;;45;65.2;;;;;;;0.4;82;97930;;;;
2021/12/11 04:57:26;;;;;;;45;65.2;;;;;;;0.4;82.1;97950;;;;
2021/12/11 05:07:06;;;;;;;45.4;66.6;;;;;;;0.3;81.7;97960;;;;
2021/12/11 05:17:02;;;;;;;45.4;66.6;;;;;;;0.3;81.7;97980;;;;
2021/12/11 05:28:02;;;;;;;45.4;66.6;;;;;;;0.3;81.5;98000;;;;
2021/12/11 05:39:02;;;;;;;43.2;59.1;;;;;;;0.3;81.9;98010;;;;
2021/12/11 05:50:02;;;;;;;43.2;59.1;;;;;;;0.2;81.8;98020;;;;
2021/12/11 06:00:02;;;;;;;43.2;59.1;;;;;;;0.4;81.8;98030;;;;
2021/12/11 06:11:02;;;;;;;44.5;63.3;;;;;;;0.5;81.2;98040;;;;
2021/12/11 06:22:02;;;;;;;44.5;63.3;;;;;;;0.5;81.2;98070;;;;
2021/12/11 06:32:03;;;;;;;44.5;63.3;;;;;;;0.3;81.3;98080;;;;
2021/12/11 06:42:02;;;;;;;38.2;56.1;;;;;;;0.4;81;98100;;;;
2021/12/11 06:52:02;;;;;;;38.2;56.1;;;;;;;0.4;81.3;98100;;;;
2021/12/11 07:02:02;;;;;;;38.2;56.1;;;;;;;0.6;81.3;98120;;;;
2021/12/11 07:13:02;;;;;;;40.2;58.5;;;;;;;0.6;81.4;98160;;;;
2021/12/11 07:23:02;;;;;;;40.2;58.5;;;;;;;0.6;81.8;98150;;;;
2021/12/11 07:34:02;;;;;;;40.2;58.5;;;;;;;0.8;80.4;98150;;;;
2021/12/11 07:45:02;;;;;;;47.7;73;;;;;;;1;80.6;98180;;;;
2021/12/11 07:55:02;;;;;;;47.7;73;;;;;;;1;80;98200;;;;
2021/12/11 08:06:02;;;;;;;45.3;64.3;;;;;;;1;80;98250;;;;
2021/12/11 08:17:05;;;;;;;45.3;64.3;;;;;;;0.9;80.7;98250;;;;
2021/12/11 08:28:02;;;;;;;45.3;64.3;;;;;;;1;80.4;98260;;;;
2021/12/11 08:38:02;;;;;;;56.4;86.2;;;;;;;0.9;79.5;98290;;;;
2021/12/11 08:48:02;;;;;;;56.4;86.2;;;;;;;1.2;79.8;98310;;;;
2021/12/11 08:58:02;;;;;;;56.4;86.2;;;;;;;1.3;78.5;98330;;;;
2021/12/11 09:09:02;;;;;;;61.1;95.6;;;;;;;1.7;78.1;98350;;;;
2021/12/11 09:19:05;;;;;;;61.1;95.6;;;;;;;1.8;77.3;98360;;;;
2021/12/11 09:29:02;;;;;;;61.1;95.6;;;;;;;1.7;78.5;98370;;;;
2021/12/11 09:40:02;;;;;;;61.3;82.5;;;;;;;1.8;77;98390;;;;
2021/12/11 09:51:04;;;;;;;61.3;82.5;;;;;;;2.1;77.2;98390;;;;
2021/12/11 10:02:02;;;;;;;61.3;82.5;;;;;;;2;77.7;98400;;;;
2021/12/11 10:12:02;;;;;;;57.9;70.7;;;;;;;2.3;76.3;98410;;;;
2021/12/11 10:23:02;;;;;;;57.9;70.7;;;;;;;2.5;75.2;98410;;;;
2021/12/11 10:34:02;;;;;;;57.9;70.7;;;;;;;2.2;75.5;98430;;;;
2021/12/11 10:45:02;;;;;;;54.9;69;;;;;;;2.5;74.7;98430;;;;
2021/12/11 10:55:02;;;;;;;54.9;69;;;;;;;2.6;75;98430;;;;
2021/12/11 11:06:02;;;;;;;57.6;74.6;;;;;;;2.8;75.1;98440;;;;
2021/12/11 11:17:02;;;;;;;57.6;74.6;;;;;;;2.8;74.1;98440;;;;
2021/12/11 11:27:02;;;;;;;57.6;74.6;;;;;;;2.8;74.7;98460;;;;
2021/12/11 11:38:02;;;;;;;74.4;93.5;;;;;;;2.9;74;98460;;;;
2021/12/11 11:48:02;;;;;;;74.4;93.5;;;;;;;2.6;74.1;98480;;;;
2021/12/11 11:59:03;;;;;;;74.4;93.5;;;;;;;2.7;75.4;98520;;;;
2021/12/11 12:10:02;;;;;;;79.8;103.7;;;;;;;2.7;75.1;98500;;;;
2021/12/11 12:21:03;;;;;;;79.8;103.7;;;;;;;2.5;75.6;98510;;;;
2021/12/11 12:31:02;;;;;;;79.8;103.7;;;;;;;2.5;76.7;98520;;;;
2021/12/11 12:41:02;;;;;;;77.4;102.6;;;;;;;2.8;76;98520;;;;
2021/12/11 12:52:05;;;;;;;77.4;102.6;;;;;;;2.7;75.9;98510;;;;
2021/12/11 13:03:02;;;;;;;77.4;102.6;;;;;;;2.5;76.4;98530;;;;
2021/12/11 13:14:02;;;;;;;74.6;95.3;;;;;;;2.6;75.7;98520;;;;
2021/12/11 13:25:02;;;;;;;74.6;95.3;;;;;;;2.5;75.7;98530;;;;
2021/12/11 13:35:02;;;;;;;65.8;82.7;;;;;;;2.7;75.4;98520;;;;
2021/12/11 13:45:03;;;;;;;65.8;82.7;;;;;;;2.6;75.8;98550;;;;
2021/12/11 13:56:02;;;;;;;65.8;82.7;;;;;;;2.5;76.1;98560;;;;
2021/12/11 14:06:04;;;;;;;62.1;79.9;;;;;;;2.5;76.6;98580;;;;
2021/12/11 14:17:02;;;;;;;62.1;79.9;;;;;;;2.4;76.8;98610;;;;
2021/12/11 14:28:02;;;;;;;62.1;79.9;;;;;;;2.4;77.2;98620;;;;
2021/12/11 14:38:02;;;;;;;61;74.9;;;;;;;2.3;77.8;98640;;;;
2021/12/11 14:49:02;;;;;;;61;74.9;;;;;;;2.2;77.9;98660;;;;
2021/12/11 15:00:02;;;;;;;61;74.9;;;;;;;2.1;78.5;98670;;;;
2021/12/11 15:10:02;;;;;;;64.4;79.5;;;;;;;2.1;78;98680;;;;
2021/12/11 15:21:02;;;;;;;64.4;79.5;;;;;;;2;78.5;98700;;;;
2021/12/11 15:32:03;;;;;;;64.4;79.5;;;;;;;2;78.9;98710;;;;
2021/12/11 15:43:03;;;;;;;65.8;80.4;;;;;;;2.1;78.5;98720;;;;
2021/12/11 15:53:02;;;;;;;65.8;80.4;;;;;;;2.1;78.5;98710;;;;
2021/12/11 16:04:02;;;;;;;83.2;106.9;;;;;;;2;78.7;98730;;;;
2021/12/11 16:14:02;;;;;;;83.2;106.9;;;;;;;2;78.8;98760;;;;
2021/12/11 16:24:02;;;;;;;83.2;106.9;;;;;;;2;78.8;98780;;;;
2021/12/11 16:34:05;;;;;;;86.9;111.1;;;;;;;1.9;79.2;98800;;;;
2021/12/11 16:45:02;;;;;;;86.9;111.1;;;;;;;2;78.9;98820;;;;
2021/12/11 16:55:33;;;;;;;86.9;111.1;;;;;;;2;79.2;98830;;;;
2021/12/11 17:27:54;;;;;;;86.7;109.2;;;;;;;2;79.2;98860;;;;
2021/12/11 17:38:54;;;;;;;86.7;109.2;;;;;;;2;79.2;98890;;;;
2021/12/11 17:49:54;;;;;;;105.5;127;;;;;;;1.9;79.2;98900;;;;
2021/12/11 17:59:54;;;;;;;105.5;127;;;;;;;1.9;79.5;98910;;;;
2021/12/11 18:09:54;;;;;;;105.5;127;;;;;;;2;79.3;98920;;;;
2021/12/11 18:20:54;;;;;;;116.6;143.6;;;;;;;1.5;81;98940;;;;
2021/12/11 18:31:54;;;;;;;116.6;143.6;;;;;;;1.7;80.6;98940;;;;
2021/12/11 18:41:54;;;;;;;116.6;143.6;;;;;;;1.7;79.8;98930;;;;
2021/12/11 18:52:54;;;;;;;92.4;119.3;;;;;;;1.8;79.7;98940;;;;
2021/12/11 19:02:54;;;;;;;92.4;119.3;;;;;;;1.9;79.6;98950;;;;
2021/12/11 19:13:54;;;;;;;120.2;142.5;;;;;;;1.9;79.9;98980;;;;
2021/12/11 19:23:54;;;;;;;120.2;142.5;;;;;;;2;79.7;99000;;;;
2021/12/11 19:33:54;;;;;;;120.2;142.5;;;;;;;1.9;79.7;99020;;;;
2021/12/11 19:44:54;;;;;;;100.4;123.7;;;;;;;1.9;79.8;99050;;;;
2021/12/11 19:55:57;;;;;;;100.4;123.7;;;;;;;1.9;79.6;99060;;;;
2021/12/11 20:05:54;;;;;;;100.4;123.7;;;;;;;2;79.3;99080;;;;
2021/12/11 20:16:54;;;;;;;92.1;115.5;;;;;;;2;79.3;99080;;;;
2021/12/11 20:27:54;;;;;;;92.1;115.5;;;;;;;2.1;79.3;99080;;;;
2021/12/11 20:38:54;;;;;;;92.1;115.5;;;;;;;2;78.7;99090;;;;
2021/12/11 20:49:54;;;;;;;95.1;113.9;;;;;;;2.1;78.9;99110;;;;
2021/12/11 21:00:54;;;;;;;95.1;113.9;;;;;;;2;78.7;99120;;;;
2021/12/11 21:11:54;;;;;;;95.1;113.9;;;;;;;1.9;78.7;99140;;;;
2021/12/11 21:22:54;;;;;;;109.1;133.9;;;;;;;1.8;79;99160;;;;
2021/12/11 21:32:54;;;;;;;109.1;133.9;;;;;;;1.8;78.9;99170;;;;
2021/12/11 21:42:54;;;;;;;119;140.7;;;;;;;1.7;78.5;99190;;;;
2021/12/11 21:52:54;;;;;;;119;140.7;;;;;;;1.6;79.2;99200;;;;
2021/12/11 22:03:54;;;;;;;119;140.7;;;;;;;1.8;78.7;99190;;;;
2021/12/11 22:14:54;;;;;;;108.6;138.3;;;;;;;1.7;79.2;99200;;;;
2021/12/11 22:24:54;;;;;;;108.6;138.3;;;;;;;1.9;78.8;99200;;;;
2021/12/11 22:34:54;;;;;;;108.6;138.3;;;;;;;1.8;78.5;99210;;;;
2021/12/11 22:44:54;;;;;;;122.6;151.8;;;;;;;1.8;78.2;99210;;;;
2021/12/11 22:55:54;;;;;;;122.6;151.8;;;;;;;1.9;78.3;99210;;;;
2021/12/11 23:05:54;;;;;;;122.6;151.8;;;;;;;1.8;78.5;99200;;;;
2021/12/11 23:15:54;;;;;;;112.7;134.3;;;;;;;1.8;78.1;99190;;;;
2021/12/11 23:26:54;;;;;;;112.7;134.3;;;;;;;1.6;78;99190;;;;
2021/12/11 23:37:55;;;;;;;112.7;134.3;;;;;;;1.6;78.1;99190;;;;
2021/12/11 23:47:54;;;;;;;105.8;133.1;;;;;;;1.6;77.8;99210;;;;
2021/12/11 23:58:54;;;;;;;105.8;133.1;;;;;;;1.7;77.7;99230;;;;
